sensor_id;sensor_type;location;lat;lon;timestamp;P1;durP1;ratioP1;P2;durP2;ratioP2
2055;SDS011;1033;52.560;13.374;2023-04-01T00:02:21;6.57;;;4.37;;
2055;SDS011;1033;52.560;13.374;2023-04-01T00:06:01;4.40;;;2.80;;
2055;SDS011;1033;52.560;13.374;2023-04-01T00:13:18;5.05;;;3.25;;
2055;SDS011;1033;52.560;13.374;2023-04-01T01:08:56;3.97;;;3.10;;
2055;SDS011;1033;52.560;13.374;2023-04-01T01:11:45;5.70;;;2.10;;
2055;SDS011;1033;52.560;13.374;2023-04-01T01:14:22;5.63;;;2.87;;
2055;SDS011;1033;52.560;13.374;2023-04-01T01:17:00;3.00;;;2.00;;
2055;SDS011;1033;52.560;13.374;2023-04-01T01:19:44;3.10;;;2.43;;
2055;SDS011;1033;52.560;13.374;2023-04-01T01:23:02;4.03;;;2.43;;
2055;SDS011;1033;52.560;13.374;2023-04-01T01:25:56;8.33;;;4.10;;
2055;SDS011;1033;52.560;13.374;2023-04-01T01:28:54;4.53;;;2.43;;
2055;SDS011;1033;52.560;13.374;2023-04-01T01:31:36;4.23;;;3.03;;
2055;SDS011;1033;52.560;13.374;2023-04-01T01:34:14;3.80;;;2.70;;
2055;SDS011;1033;52.560;13.374;2023-04-01T01:36:53;6.13;;;3.13;;
2055;SDS011;1033;52.560;13.374;2023-04-01T01:39:26;4.23;;;2.70;;
2055;SDS011;1033;52.560;13.374;2023-04-01T01:42:00;4.80;;;3.10;;
2055;SDS011;1033;52.560;13.374;2023-04-01T01:44:32;4.80;;;2.70;;
2055;SDS011;1033;52.560;13.374;2023-04-01T01:47:03;4.20;;;3.53;;
2055;SDS011;1033;52.560;13.374;2023-04-01T01:49:33;4.10;;;3.10;;
2055;SDS011;1033;52.560;13.374;2023-04-01T01:52:05;3.00;;;2.50;;
2055;SDS011;1033;52.560;13.374;2023-04-01T01:54:34;5.97;;;3.70;;
2055;SDS011;1033;52.560;13.374;2023-04-01T01:57:04;4.27;;;2.63;;
2055;SDS011;1033;52.560;13.374;2023-04-01T01:59:41;7.27;;;4.93;;
2055;SDS011;1033;52.560;13.374;2023-04-01T02:02:20;11.65;;;4.65;;
2055;SDS011;1033;52.560;13.374;2023-04-01T02:04:50;4.03;;;2.67;;
2055;SDS011;1033;52.560;13.374;2023-04-01T02:07:23;6.43;;;3.30;;
2055;SDS011;1033;52.560;13.374;2023-04-01T02:09:57;4.80;;;2.77;;
2055;SDS011;1033;52.560;13.374;2023-04-01T02:12:26;5.43;;;3.53;;
2055;SDS011;1033;52.560;13.374;2023-04-01T02:14:58;3.57;;;3.03;;
2055;SDS011;1033;52.560;13.374;2023-04-01T02:17:34;3.13;;;2.50;;
2055;SDS011;1033;52.560;13.374;2023-04-01T02:20:08;3.87;;;2.47;;
2055;SDS011;1033;52.560;13.374;2023-04-01T02:22:44;5.55;;;3.22;;
2055;SDS011;1033;52.560;13.374;2023-04-01T02:25:16;3.70;;;2.28;;
2055;SDS011;1033;52.560;13.374;2023-04-01T02:27:48;3.93;;;2.70;;
2055;SDS011;1033;52.560;13.374;2023-04-01T02:30:17;6.30;;;2.17;;
2055;SDS011;1033;52.560;13.374;2023-04-01T02:32:47;4.63;;;2.30;;
2055;SDS011;1033;52.560;13.374;2023-04-01T02:35:17;4.10;;;2.20;;
2055;SDS011;1033;52.560;13.374;2023-04-01T02:37:48;8.30;;;3.30;;
2055;SDS011;1033;52.560;13.374;2023-04-01T02:40:19;6.73;;;2.57;;
2055;SDS011;1033;52.560;13.374;2023-04-01T02:42:49;4.78;;;3.05;;
2055;SDS011;1033;52.560;13.374;2023-04-01T02:45:18;5.70;;;2.60;;
2055;SDS011;1033;52.560;13.374;2023-04-01T02:47:47;4.78;;;3.05;;
2055;SDS011;1033;52.560;13.374;2023-04-01T02:50:17;3.07;;;2.37;;
2055;SDS011;1033;52.560;13.374;2023-04-01T02:52:47;3.70;;;2.90;;
2055;SDS011;1033;52.560;13.374;2023-04-01T02:55:16;4.57;;;3.00;;
2055;SDS011;1033;52.560;13.374;2023-04-01T02:57:45;9.38;;;2.85;;
2055;SDS011;1033;52.560;13.374;2023-04-01T03:00:15;6.13;;;4.20;;
2055;SDS011;1033;52.560;13.374;2023-04-01T03:02:45;3.27;;;2.83;;
2055;SDS011;1033;52.560;13.374;2023-04-01T03:05:14;2.43;;;2.13;;
2055;SDS011;1033;52.560;13.374;2023-04-01T03:07:43;3.43;;;2.27;;
2055;SDS011;1033;52.560;13.374;2023-04-01T03:10:14;2.40;;;2.20;;
2055;SDS011;1033;52.560;13.374;2023-04-01T03:12:44;4.40;;;3.00;;
2055;SDS011;1033;52.560;13.374;2023-04-01T03:15:13;4.93;;;2.70;;
2055;SDS011;1033;52.560;13.374;2023-04-01T03:17:42;3.93;;;2.80;;
2055;SDS011;1033;52.560;13.374;2023-04-01T03:20:13;6.90;;;3.10;;
2055;SDS011;1033;52.560;13.374;2023-04-01T03:22:43;5.10;;;2.60;;
2055;SDS011;1033;52.560;13.374;2023-04-01T03:25:12;8.03;;;3.30;;
2055;SDS011;1033;52.560;13.374;2023-04-01T03:27:43;2.67;;;2.47;;
2055;SDS011;1033;52.560;13.374;2023-04-01T03:30:12;4.63;;;2.77;;
2055;SDS011;1033;52.560;13.374;2023-04-01T03:32:48;2.77;;;1.90;;
2055;SDS011;1033;52.560;13.374;2023-04-01T03:35:17;4.03;;;2.87;;
2055;SDS011;1033;52.560;13.374;2023-04-01T03:37:46;4.53;;;2.57;;
2055;SDS011;1033;52.560;13.374;2023-04-01T03:40:17;9.67;;;3.00;;
2055;SDS011;1033;52.560;13.374;2023-04-01T03:42:47;3.47;;;2.43;;
2055;SDS011;1033;52.560;13.374;2023-04-01T03:45:17;6.03;;;2.63;;
2055;SDS011;1033;52.560;13.374;2023-04-01T03:47:46;3.60;;;2.33;;
2055;SDS011;1033;52.560;13.374;2023-04-01T03:50:15;2.30;;;2.10;;
2055;SDS011;1033;52.560;13.374;2023-04-01T03:52:46;7.40;;;2.90;;
2055;SDS011;1033;52.560;13.374;2023-04-01T03:55:15;4.77;;;3.23;;
2055;SDS011;1033;52.560;13.374;2023-04-01T03:57:46;4.07;;;2.90;;
2055;SDS011;1033;52.560;13.374;2023-04-01T04:00:17;4.77;;;2.80;;
2055;SDS011;1033;52.560;13.374;2023-04-01T04:02:52;5.43;;;3.00;;
2055;SDS011;1033;52.560;13.374;2023-04-01T04:05:28;3.53;;;2.00;;
2055;SDS011;1033;52.560;13.374;2023-04-01T04:07:58;6.27;;;2.80;;
2055;SDS011;1033;52.560;13.374;2023-04-01T04:10:28;5.03;;;2.40;;
2055;SDS011;1033;52.560;13.374;2023-04-01T04:12:57;5.33;;;3.43;;
2055;SDS011;1033;52.560;13.374;2023-04-01T04:15:29;7.10;;;3.33;;
2055;SDS011;1033;52.560;13.374;2023-04-01T04:17:58;4.53;;;3.60;;
2055;SDS011;1033;52.560;13.374;2023-04-01T04:20:28;6.67;;;4.60;;
2055;SDS011;1033;52.560;13.374;2023-04-01T04:22:57;6.97;;;3.23;;
2055;SDS011;1033;52.560;13.374;2023-04-01T04:25:29;8.77;;;2.97;;
2055;SDS011;1033;52.560;13.374;2023-04-01T04:27:59;6.87;;;3.27;;
2055;SDS011;1033;52.560;13.374;2023-04-01T04:30:28;7.97;;;3.30;;
2055;SDS011;1033;52.560;13.374;2023-04-01T04:32:58;5.40;;;4.03;;
2055;SDS011;1033;52.560;13.374;2023-04-01T04:35:28;8.60;;;4.00;;
2055;SDS011;1033;52.560;13.374;2023-04-01T04:37:58;9.37;;;3.80;;
2055;SDS011;1033;52.560;13.374;2023-04-01T04:40:28;5.30;;;4.03;;
2055;SDS011;1033;52.560;13.374;2023-04-01T04:42:57;4.80;;;4.30;;
2055;SDS011;1033;52.560;13.374;2023-04-01T04:45:27;7.90;;;3.53;;
2055;SDS011;1033;52.560;13.374;2023-04-01T04:47:57;9.40;;;4.40;;
2055;SDS011;1033;52.560;13.374;2023-04-01T04:50:27;4.57;;;4.03;;
2055;SDS011;1033;52.560;13.374;2023-04-01T04:52:57;6.33;;;4.27;;
2055;SDS011;1033;52.560;13.374;2023-04-01T04:55:26;6.10;;;5.50;;
2055;SDS011;1033;52.560;13.374;2023-04-01T04:58:15;11.50;;;4.00;;
2055;SDS011;1033;52.560;13.374;2023-04-01T05:00:45;4.83;;;3.30;;
2055;SDS011;1033;52.560;13.374;2023-04-01T05:03:27;8.57;;;4.63;;
2055;SDS011;1033;52.560;13.374;2023-04-01T05:05:57;4.90;;;3.67;;
2055;SDS011;1033;52.560;13.374;2023-04-01T05:08:26;7.00;;;3.90;;
2055;SDS011;1033;52.560;13.374;2023-04-01T05:10:56;6.87;;;4.13;;
2055;SDS011;1033;52.560;13.374;2023-04-01T05:13:26;5.90;;;3.73;;
2055;SDS011;1033;52.560;13.374;2023-04-01T05:15:55;4.90;;;4.23;;
2055;SDS011;1033;52.560;13.374;2023-04-01T05:18:24;5.67;;;4.43;;
2055;SDS011;1033;52.560;13.374;2023-04-01T05:20:54;11.97;;;4.10;;
2055;SDS011;1033;52.560;13.374;2023-04-01T05:23:23;7.47;;;4.93;;
2055;SDS011;1033;52.560;13.374;2023-04-01T05:25:52;4.97;;;3.67;;
2055;SDS011;1033;52.560;13.374;2023-04-01T05:28:24;4.37;;;3.40;;
2055;SDS011;1033;52.560;13.374;2023-04-01T05:30:54;4.23;;;3.20;;
2055;SDS011;1033;52.560;13.374;2023-04-01T05:33:29;5.43;;;4.30;;
2055;SDS011;1033;52.560;13.374;2023-04-01T05:36:05;7.83;;;4.20;;
2055;SDS011;1033;52.560;13.374;2023-04-01T05:38:35;9.73;;;3.90;;
2055;SDS011;1033;52.560;13.374;2023-04-01T05:41:07;11.00;;;4.50;;
2055;SDS011;1033;52.560;13.374;2023-04-01T05:43:42;6.77;;;3.77;;
2055;SDS011;1033;52.560;13.374;2023-04-01T05:46:32;7.27;;;4.33;;
2055;SDS011;1033;52.560;13.374;2023-04-01T05:49:21;7.67;;;3.80;;
2055;SDS011;1033;52.560;13.374;2023-04-01T05:51:54;6.97;;;4.03;;
2055;SDS011;1033;52.560;13.374;2023-04-01T05:54:25;8.83;;;4.43;;
2055;SDS011;1033;52.560;13.374;2023-04-01T05:56:56;6.73;;;3.47;;
2055;SDS011;1033;52.560;13.374;2023-04-01T05:59:27;7.93;;;4.00;;
2055;SDS011;1033;52.560;13.374;2023-04-01T06:01:58;5.70;;;4.57;;
2055;SDS011;1033;52.560;13.374;2023-04-01T06:04:28;7.10;;;4.63;;
2055;SDS011;1033;52.560;13.374;2023-04-01T06:07:05;8.90;;;4.73;;
2055;SDS011;1033;52.560;13.374;2023-04-01T06:09:40;6.30;;;4.10;;
2055;SDS011;1033;52.560;13.374;2023-04-01T06:15:27;5.67;;;4.10;;
2055;SDS011;1033;52.560;13.374;2023-04-01T06:18:23;7.03;;;4.00;;
2055;SDS011;1033;52.560;13.374;2023-04-01T06:21:07;7.10;;;6.40;;
2055;SDS011;1033;52.560;13.374;2023-04-01T06:24:05;6.43;;;4.10;;
2055;SDS011;1033;52.560;13.374;2023-04-01T06:26:51;10.93;;;5.13;;
2055;SDS011;1033;52.560;13.374;2023-04-01T06:32:41;7.33;;;5.43;;
2055;SDS011;1033;52.560;13.374;2023-04-01T06:35:29;12.50;;;4.80;;
2055;SDS011;1033;52.560;13.374;2023-04-01T06:38:25;7.40;;;3.70;;
2055;SDS011;1033;52.560;13.374;2023-04-01T06:44:08;7.27;;;4.63;;
2055;SDS011;1033;52.560;13.374;2023-04-01T06:47:06;6.47;;;4.30;;
2055;SDS011;1033;52.560;13.374;2023-04-01T06:50:15;8.97;;;5.50;;
2055;SDS011;1033;52.560;13.374;2023-04-01T06:52:56;10.73;;;6.30;;
2055;SDS011;1033;52.560;13.374;2023-04-01T06:55:51;8.93;;;5.60;;
2055;SDS011;1033;52.560;13.374;2023-04-01T06:58:46;7.77;;;4.57;;
2055;SDS011;1033;52.560;13.374;2023-04-01T07:01:19;6.00;;;5.00;;
2055;SDS011;1033;52.560;13.374;2023-04-01T07:03:55;12.17;;;5.03;;
2055;SDS011;1033;52.560;13.374;2023-04-01T07:06:31;5.20;;;4.50;;
2055;SDS011;1033;52.560;13.374;2023-04-01T07:09:04;8.53;;;5.30;;
2055;SDS011;1033;52.560;13.374;2023-04-01T07:12:09;12.87;;;6.50;;
2055;SDS011;1033;52.560;13.374;2023-04-01T07:15:04;15.10;;;7.37;;
2055;SDS011;1033;52.560;13.374;2023-04-01T07:17:43;9.17;;;5.60;;
2055;SDS011;1033;52.560;13.374;2023-04-01T07:20:17;8.20;;;5.37;;
2055;SDS011;1033;52.560;13.374;2023-04-01T07:22:52;6.93;;;4.93;;
2055;SDS011;1033;52.560;13.374;2023-04-01T07:25:30;6.97;;;6.30;;
2055;SDS011;1033;52.560;13.374;2023-04-01T07:28:34;7.20;;;6.50;;
2055;SDS011;1033;52.560;13.374;2023-04-01T07:31:24;8.20;;;4.87;;
2055;SDS011;1033;52.560;13.374;2023-04-01T07:34:03;5.67;;;4.60;;
2055;SDS011;1033;52.560;13.374;2023-04-01T07:36:38;6.20;;;5.00;;
2055;SDS011;1033;52.560;13.374;2023-04-01T07:39:18;4.40;;;3.77;;
2055;SDS011;1033;52.560;13.374;2023-04-01T07:42:07;4.43;;;3.10;;
2055;SDS011;1033;52.560;13.374;2023-04-01T07:44:45;6.93;;;3.67;;
2055;SDS011;1033;52.560;13.374;2023-04-01T07:47:32;3.20;;;2.90;;
2055;SDS011;1033;52.560;13.374;2023-04-01T07:50:19;10.50;;;9.47;;
2055;SDS011;1033;52.560;13.374;2023-04-01T07:52:58;5.77;;;4.50;;
2055;SDS011;1033;52.560;13.374;2023-04-01T07:55:39;5.70;;;4.47;;
2055;SDS011;1033;52.560;13.374;2023-04-01T07:58:18;6.80;;;5.20;;
2055;SDS011;1033;52.560;13.374;2023-04-01T08:00:55;9.47;;;7.37;;
2055;SDS011;1033;52.560;13.374;2023-04-01T08:03:41;8.30;;;7.50;;
2055;SDS011;1033;52.560;13.374;2023-04-01T08:06:24;8.50;;;4.67;;
2055;SDS011;1033;52.560;13.374;2023-04-01T08:08:59;5.33;;;4.33;;
2055;SDS011;1033;52.560;13.374;2023-04-01T08:12:01;6.40;;;3.53;;
2055;SDS011;1033;52.560;13.374;2023-04-01T08:15:01;5.90;;;3.87;;
2055;SDS011;1033;52.560;13.374;2023-04-01T08:17:54;5.38;;;3.83;;
2055;SDS011;1033;52.560;13.374;2023-04-01T08:20:33;6.18;;;3.00;;
2055;SDS011;1033;52.560;13.374;2023-04-01T08:23:10;6.30;;;4.30;;
2055;SDS011;1033;52.560;13.374;2023-04-01T08:25:44;5.80;;;4.00;;
2055;SDS011;1033;52.560;13.374;2023-04-01T08:28:22;7.13;;;4.45;;
2055;SDS011;1033;52.560;13.374;2023-04-01T08:31:01;8.80;;;5.72;;
2055;SDS011;1033;52.560;13.374;2023-04-01T08:33:34;5.78;;;4.90;;
2055;SDS011;1033;52.560;13.374;2023-04-01T08:36:09;9.73;;;6.55;;
2055;SDS011;1033;52.560;13.374;2023-04-01T08:38:49;11.70;;;6.85;;
2055;SDS011;1033;52.560;13.374;2023-04-01T08:41:42;11.07;;;7.28;;
2055;SDS011;1033;52.560;13.374;2023-04-01T08:45:07;12.55;;;7.60;;
2055;SDS011;1033;52.560;13.374;2023-04-01T08:48:02;10.43;;;7.55;;
2055;SDS011;1033;52.560;13.374;2023-04-01T08:51:10;14.30;;;9.82;;
2055;SDS011;1033;52.560;13.374;2023-04-01T08:56:50;13.82;;;8.75;;
2055;SDS011;1033;52.560;13.374;2023-04-01T08:59:32;15.35;;;9.65;;
2055;SDS011;1033;52.560;13.374;2023-04-01T09:12:14;18.13;;;13.10;;
2055;SDS011;1033;52.560;13.374;2023-04-01T09:15:16;21.40;;;14.15;;
2055;SDS011;1033;52.560;13.374;2023-04-01T09:18:22;24.48;;;13.57;;
2055;SDS011;1033;52.560;13.374;2023-04-01T09:21:14;16.48;;;12.43;;
2055;SDS011;1033;52.560;13.374;2023-04-01T09:27:03;19.85;;;13.85;;
2055;SDS011;1033;52.560;13.374;2023-04-01T09:29:47;20.50;;;14.70;;
2055;SDS011;1033;52.560;13.374;2023-04-01T09:32:42;16.08;;;11.48;;
2055;SDS011;1033;52.560;13.374;2023-04-01T09:35:38;16.38;;;12.75;;
2055;SDS011;1033;52.560;13.374;2023-04-01T09:38:20;15.65;;;12.70;;
2055;SDS011;1033;52.560;13.374;2023-04-01T09:40:54;18.50;;;12.55;;
2055;SDS011;1033;52.560;13.374;2023-04-01T09:43:39;15.70;;;11.68;;
2055;SDS011;1033;52.560;13.374;2023-04-01T09:46:26;18.70;;;13.43;;
2055;SDS011;1033;52.560;13.374;2023-04-01T09:49:21;14.35;;;10.30;;
2055;SDS011;1033;52.560;13.374;2023-04-01T09:52:23;15.25;;;11.98;;
2055;SDS011;1033;52.560;13.374;2023-04-01T09:55:16;18.20;;;11.93;;
2055;SDS011;1033;52.560;13.374;2023-04-01T09:58:24;16.98;;;12.85;;
2055;SDS011;1033;52.560;13.374;2023-04-01T10:05:18;17.60;;;12.65;;
2055;SDS011;1033;52.560;13.374;2023-04-01T10:08:21;15.88;;;12.52;;
2055;SDS011;1033;52.560;13.374;2023-04-01T10:24:17;13.48;;;11.95;;
2055;SDS011;1033;52.560;13.374;2023-04-01T10:27:21;15.63;;;11.00;;
2055;SDS011;1033;52.560;13.374;2023-04-01T10:30:50;17.27;;;11.50;;
2055;SDS011;1033;52.560;13.374;2023-04-01T10:36:52;13.90;;;10.35;;
2055;SDS011;1033;52.560;13.374;2023-04-01T10:49:29;15.43;;;11.55;;
2055;SDS011;1033;52.560;13.374;2023-04-01T10:52:33;13.80;;;11.18;;
2055;SDS011;1033;52.560;13.374;2023-04-01T11:09:29;14.65;;;11.20;;
2055;SDS011;1033;52.560;13.374;2023-04-01T11:12:34;13.57;;;11.48;;
2055;SDS011;1033;52.560;13.374;2023-04-01T11:15:28;16.73;;;12.63;;
2055;SDS011;1033;52.560;13.374;2023-04-01T11:21:42;11.23;;;9.40;;
2055;SDS011;1033;52.560;13.374;2023-04-01T11:24:47;25.90;;;17.33;;
2055;SDS011;1033;52.560;13.374;2023-04-01T11:27:48;15.85;;;11.85;;
2055;SDS011;1033;52.560;13.374;2023-04-01T11:30:44;14.50;;;10.43;;
2055;SDS011;1033;52.560;13.374;2023-04-01T11:33:27;12.65;;;9.98;;
2055;SDS011;1033;52.560;13.374;2023-04-01T11:36:05;13.60;;;10.38;;
2055;SDS011;1033;52.560;13.374;2023-04-01T11:38:49;19.52;;;13.13;;
2055;SDS011;1033;52.560;13.374;2023-04-01T11:42:01;17.23;;;13.00;;
2055;SDS011;1033;52.560;13.374;2023-04-01T11:45:40;20.80;;;15.82;;
2055;SDS011;1033;52.560;13.374;2023-04-01T11:48:32;16.52;;;13.05;;
2055;SDS011;1033;52.560;13.374;2023-04-01T11:55:27;17.60;;;13.43;;
2055;SDS011;1033;52.560;13.374;2023-04-01T11:58:17;20.83;;;15.18;;
2055;SDS011;1033;52.560;13.374;2023-04-01T12:01:08;18.10;;;14.75;;
2055;SDS011;1033;52.560;13.374;2023-04-01T12:04:00;20.33;;;14.80;;
2055;SDS011;1033;52.560;13.374;2023-04-01T12:06:53;21.25;;;16.25;;
2055;SDS011;1033;52.560;13.374;2023-04-01T12:09:32;18.25;;;14.75;;
2055;SDS011;1033;52.560;13.374;2023-04-01T12:12:13;15.98;;;12.73;;
2055;SDS011;1033;52.560;13.374;2023-04-01T12:14:52;16.15;;;12.75;;
2055;SDS011;1033;52.560;13.374;2023-04-01T12:17:30;18.42;;;13.65;;
2055;SDS011;1033;52.560;13.374;2023-04-01T12:23:08;15.90;;;12.68;;
2055;SDS011;1033;52.560;13.374;2023-04-01T12:26:05;16.20;;;13.02;;
2055;SDS011;1033;52.560;13.374;2023-04-01T12:28:53;14.63;;;12.35;;
2055;SDS011;1033;52.560;13.374;2023-04-01T12:31:38;13.85;;;11.52;;
2055;SDS011;1033;52.560;13.374;2023-04-01T12:37:30;16.88;;;12.65;;
2055;SDS011;1033;52.560;13.374;2023-04-01T12:40:10;18.85;;;15.35;;
2055;SDS011;1033;52.560;13.374;2023-04-01T12:42:52;16.25;;;12.73;;
2055;SDS011;1033;52.560;13.374;2023-04-01T12:45:35;19.17;;;14.25;;
2055;SDS011;1033;52.560;13.374;2023-04-01T12:51:22;19.10;;;14.40;;
2055;SDS011;1033;52.560;13.374;2023-04-01T12:57:12;20.85;;;14.52;;
2055;SDS011;1033;52.560;13.374;2023-04-01T13:00:02;23.50;;;14.50;;
2055;SDS011;1033;52.560;13.374;2023-04-01T13:02:55;18.52;;;14.73;;
2055;SDS011;1033;52.560;13.374;2023-04-01T13:08:52;17.85;;;14.40;;
2055;SDS011;1033;52.560;13.374;2023-04-01T13:11:34;17.60;;;13.40;;
2055;SDS011;1033;52.560;13.374;2023-04-01T13:14:21;19.75;;;14.40;;
2055;SDS011;1033;52.560;13.374;2023-04-01T13:17:09;21.27;;;16.00;;
2055;SDS011;1033;52.560;13.374;2023-04-01T13:19:47;23.13;;;14.65;;
2055;SDS011;1033;52.560;13.374;2023-04-01T13:22:35;17.33;;;13.70;;
2055;SDS011;1033;52.560;13.374;2023-04-01T13:25:15;21.02;;;16.83;;
2055;SDS011;1033;52.560;13.374;2023-04-01T13:27:55;22.42;;;14.10;;
2055;SDS011;1033;52.560;13.374;2023-04-01T13:30:32;17.52;;;14.38;;
2055;SDS011;1033;52.560;13.374;2023-04-01T13:33:12;16.05;;;12.98;;
2055;SDS011;1033;52.560;13.374;2023-04-01T13:35:56;16.33;;;12.98;;
2055;SDS011;1033;52.560;13.374;2023-04-01T13:38:40;15.50;;;11.80;;
2055;SDS011;1033;52.560;13.374;2023-04-01T13:41:36;14.52;;;10.75;;
2055;SDS011;1033;52.560;13.374;2023-04-01T13:44:17;14.00;;;10.80;;
2055;SDS011;1033;52.560;13.374;2023-04-01T13:47:03;14.75;;;10.80;;
2055;SDS011;1033;52.560;13.374;2023-04-01T13:49:53;10.90;;;9.48;;
2055;SDS011;1033;52.560;13.374;2023-04-01T13:53:11;10.60;;;8.70;;
2055;SDS011;1033;52.560;13.374;2023-04-01T13:55:54;10.15;;;7.30;;
2055;SDS011;1033;52.560;13.374;2023-04-01T13:58:43;9.02;;;6.35;;
2055;SDS011;1033;52.560;13.374;2023-04-01T14:01:29;9.50;;;6.55;;
2055;SDS011;1033;52.560;13.374;2023-04-01T14:04:12;10.13;;;8.30;;
2055;SDS011;1033;52.560;13.374;2023-04-01T14:07:00;9.30;;;6.32;;
2055;SDS011;1033;52.560;13.374;2023-04-01T14:09:54;8.02;;;7.20;;
2055;SDS011;1033;52.560;13.374;2023-04-01T14:12:38;9.57;;;7.90;;
2055;SDS011;1033;52.560;13.374;2023-04-01T14:15:19;9.05;;;7.57;;
2055;SDS011;1033;52.560;13.374;2023-04-01T14:18:10;11.40;;;7.30;;
2055;SDS011;1033;52.560;13.374;2023-04-01T14:20:59;8.13;;;7.28;;
2055;SDS011;1033;52.560;13.374;2023-04-01T14:23:47;8.77;;;7.47;;
2055;SDS011;1033;52.560;13.374;2023-04-01T14:26:50;6.93;;;5.93;;
2055;SDS011;1033;52.560;13.374;2023-04-01T14:29:51;9.38;;;6.25;;
2055;SDS011;1033;52.560;13.374;2023-04-01T14:32:30;7.97;;;6.45;;
2055;SDS011;1033;52.560;13.374;2023-04-01T14:35:21;5.63;;;5.13;;
2055;SDS011;1033;52.560;13.374;2023-04-01T14:41:06;6.95;;;5.15;;
2055;SDS011;1033;52.560;13.374;2023-04-01T14:43:48;8.25;;;6.18;;
2055;SDS011;1033;52.560;13.374;2023-04-01T14:46:47;5.55;;;5.05;;
2055;SDS011;1033;52.560;13.374;2023-04-01T14:49:33;9.80;;;6.45;;
2055;SDS011;1033;52.560;13.374;2023-04-01T14:52:04;5.57;;;4.97;;
2055;SDS011;1033;52.560;13.374;2023-04-01T14:54:40;5.85;;;4.57;;
2055;SDS011;1033;52.560;13.374;2023-04-01T14:57:12;7.25;;;5.20;;
2055;SDS011;1033;52.560;13.374;2023-04-01T14:59:47;6.35;;;5.43;;
2055;SDS011;1033;52.560;13.374;2023-04-01T15:02:28;7.90;;;6.45;;
2055;SDS011;1033;52.560;13.374;2023-04-01T15:05:14;5.75;;;5.15;;
2055;SDS011;1033;52.560;13.374;2023-04-01T15:08:01;5.05;;;4.55;;
2055;SDS011;1033;52.560;13.374;2023-04-01T15:10:53;9.07;;;6.40;;
2055;SDS011;1033;52.560;13.374;2023-04-01T15:13:51;6.22;;;5.57;;
2055;SDS011;1033;52.560;13.374;2023-04-01T15:16:41;7.47;;;6.22;;
2055;SDS011;1033;52.560;13.374;2023-04-01T15:19:23;8.23;;;6.47;;
2055;SDS011;1033;52.560;13.374;2023-04-01T15:22:02;7.22;;;6.53;;
2055;SDS011;1033;52.560;13.374;2023-04-01T15:24:56;10.68;;;6.38;;
2055;SDS011;1033;52.560;13.374;2023-04-01T15:27:35;14.60;;;8.35;;
2055;SDS011;1033;52.560;13.374;2023-04-01T15:30:17;7.88;;;7.10;;
2055;SDS011;1033;52.560;13.374;2023-04-01T15:33:11;8.23;;;7.35;;
2055;SDS011;1033;52.560;13.374;2023-04-01T15:35:57;8.80;;;7.95;;
2055;SDS011;1033;52.560;13.374;2023-04-01T15:38:36;9.80;;;8.75;;
2055;SDS011;1033;52.560;13.374;2023-04-01T15:41:14;12.05;;;8.27;;
2055;SDS011;1033;52.560;13.374;2023-04-01T15:43:45;7.43;;;6.65;;
2055;SDS011;1033;52.560;13.374;2023-04-01T15:46:22;6.63;;;5.93;;
2055;SDS011;1033;52.560;13.374;2023-04-01T15:49:13;9.75;;;7.05;;
2055;SDS011;1033;52.560;13.374;2023-04-01T15:52:07;11.73;;;6.80;;
2055;SDS011;1033;52.560;13.374;2023-04-01T15:54:56;8.30;;;7.15;;
2055;SDS011;1033;52.560;13.374;2023-04-01T15:57:45;9.80;;;8.32;;
2055;SDS011;1033;52.560;13.374;2023-04-01T16:00:27;7.68;;;6.97;;
2055;SDS011;1033;52.560;13.374;2023-04-01T16:03:12;12.05;;;7.35;;
2055;SDS011;1033;52.560;13.374;2023-04-01T16:05:59;7.25;;;6.40;;
2055;SDS011;1033;52.560;13.374;2023-04-01T16:11:43;8.57;;;6.70;;
2055;SDS011;1033;52.560;13.374;2023-04-01T16:14:28;10.35;;;7.43;;
2055;SDS011;1033;52.560;13.374;2023-04-01T16:17:10;8.02;;;6.53;;
2055;SDS011;1033;52.560;13.374;2023-04-01T16:19:51;7.78;;;7.07;;
2055;SDS011;1033;52.560;13.374;2023-04-01T16:22:25;8.70;;;6.32;;
2055;SDS011;1033;52.560;13.374;2023-04-01T16:25:01;6.45;;;5.85;;
2055;SDS011;1033;52.560;13.374;2023-04-01T16:27:49;7.88;;;6.30;;
2055;SDS011;1033;52.560;13.374;2023-04-01T16:30:26;6.10;;;5.50;;
2055;SDS011;1033;52.560;13.374;2023-04-01T16:33:03;9.38;;;7.80;;
2055;SDS011;1033;52.560;13.374;2023-04-01T16:35:42;6.35;;;5.25;;
2055;SDS011;1033;52.560;13.374;2023-04-01T16:38:19;7.10;;;6.40;;
2055;SDS011;1033;52.560;13.374;2023-04-01T16:40:59;9.85;;;7.57;;
2055;SDS011;1033;52.560;13.374;2023-04-01T16:43:39;7.80;;;7.07;;
2055;SDS011;1033;52.560;13.374;2023-04-01T16:46:20;7.35;;;5.38;;
2055;SDS011;1033;52.560;13.374;2023-04-01T16:49:23;9.68;;;6.55;;
2055;SDS011;1033;52.560;13.374;2023-04-01T16:51:59;8.18;;;6.00;;
2055;SDS011;1033;52.560;13.374;2023-04-01T16:54:44;7.35;;;6.18;;
2055;SDS011;1033;52.560;13.374;2023-04-01T16:57:19;6.97;;;5.60;;
2055;SDS011;1033;52.560;13.374;2023-04-01T16:59:54;8.40;;;6.90;;
2055;SDS011;1033;52.560;13.374;2023-04-01T17:02:30;9.30;;;7.00;;
2055;SDS011;1033;52.560;13.374;2023-04-01T17:05:04;7.47;;;6.63;;
2055;SDS011;1033;52.560;13.374;2023-04-01T17:07:40;7.18;;;6.53;;
2055;SDS011;1033;52.560;13.374;2023-04-01T17:10:32;6.80;;;5.43;;
2055;SDS011;1033;52.560;13.374;2023-04-01T17:13:24;7.70;;;6.00;;
2055;SDS011;1033;52.560;13.374;2023-04-01T17:16:19;6.85;;;5.45;;
2055;SDS011;1033;52.560;13.374;2023-04-01T17:19:08;6.63;;;5.90;;
2055;SDS011;1033;52.560;13.374;2023-04-01T17:21:49;7.25;;;5.55;;
2055;SDS011;1033;52.560;13.374;2023-04-01T17:24:31;8.43;;;6.78;;
2055;SDS011;1033;52.560;13.374;2023-04-01T17:27:20;9.18;;;6.57;;
2055;SDS011;1033;52.560;13.374;2023-04-01T17:36:06;5.97;;;5.40;;
2055;SDS011;1033;52.560;13.374;2023-04-01T17:38:56;8.25;;;7.03;;
2055;SDS011;1033;52.560;13.374;2023-04-01T17:41:46;7.15;;;6.00;;
2055;SDS011;1033;52.560;13.374;2023-04-01T17:44:26;8.20;;;7.10;;
2055;SDS011;1033;52.560;13.374;2023-04-01T17:47:07;7.45;;;6.63;;
2055;SDS011;1033;52.560;13.374;2023-04-01T17:49:42;21.70;;;17.67;;
2055;SDS011;1033;52.560;13.374;2023-04-01T17:52:22;6.15;;;5.55;;
2055;SDS011;1033;52.560;13.374;2023-04-01T17:54:58;8.93;;;6.70;;
2055;SDS011;1033;52.560;13.374;2023-04-01T17:57:39;11.35;;;5.97;;
2055;SDS011;1033;52.560;13.374;2023-04-01T18:00:18;7.53;;;6.45;;
2055;SDS011;1033;52.560;13.374;2023-04-01T18:03:00;8.52;;;7.38;;
2055;SDS011;1033;52.560;13.374;2023-04-01T18:05:50;6.70;;;5.97;;
2055;SDS011;1033;52.560;13.374;2023-04-01T18:08:40;7.50;;;5.75;;
2055;SDS011;1033;52.560;13.374;2023-04-01T18:11:26;8.18;;;7.15;;
2055;SDS011;1033;52.560;13.374;2023-04-01T18:17:03;8.35;;;6.88;;
2055;SDS011;1033;52.560;13.374;2023-04-01T18:19:53;10.45;;;7.10;;
2055;SDS011;1033;52.560;13.374;2023-04-01T18:22:36;15.88;;;8.32;;
2055;SDS011;1033;52.560;13.374;2023-04-01T18:25:12;10.23;;;5.90;;
2055;SDS011;1033;52.560;13.374;2023-04-01T18:27:50;8.93;;;5.97;;
2055;SDS011;1033;52.560;13.374;2023-04-01T18:30:25;9.38;;;8.30;;
2055;SDS011;1033;52.560;13.374;2023-04-01T18:32:58;8.30;;;6.80;;
2055;SDS011;1033;52.560;13.374;2023-04-01T18:35:34;9.75;;;8.73;;
2055;SDS011;1033;52.560;13.374;2023-04-01T18:38:18;12.35;;;8.65;;
2055;SDS011;1033;52.560;13.374;2023-04-01T18:41:01;11.30;;;9.57;;
2055;SDS011;1033;52.560;13.374;2023-04-01T18:43:40;12.20;;;9.20;;
2055;SDS011;1033;52.560;13.374;2023-04-01T18:46:25;12.18;;;8.05;;
2055;SDS011;1033;52.560;13.374;2023-04-01T18:49:07;10.65;;;8.35;;
2055;SDS011;1033;52.560;13.374;2023-04-01T18:51:44;13.18;;;8.75;;
2055;SDS011;1033;52.560;13.374;2023-04-01T18:54:21;18.75;;;10.57;;
2055;SDS011;1033;52.560;13.374;2023-04-01T18:57:01;10.88;;;9.48;;
2055;SDS011;1033;52.560;13.374;2023-04-01T18:59:37;14.50;;;9.52;;
2055;SDS011;1033;52.560;13.374;2023-04-01T19:02:21;12.32;;;8.57;;
2055;SDS011;1033;52.560;13.374;2023-04-01T19:05:02;12.80;;;8.90;;
2055;SDS011;1033;52.560;13.374;2023-04-01T19:07:41;16.92;;;9.95;;